createdAt,value
2019-03-16T00:00:30.614Z,62.6
2019-03-16T00:01:20.649Z,62.6
2019-03-16T00:02:10.170Z,62.6
2019-03-16T00:03:00.779Z,62.6
2019-03-16T00:03:50.264Z,62.6
2019-03-16T00:04:40.333Z,62.6
2019-03-16T00:05:29.948Z,62.6
2019-03-16T00:06:20.544Z,62.6
2019-03-16T00:07:09.738Z,62.6
2019-03-16T00:08:00.096Z,62.6
2019-03-16T00:08:50.913Z,62.6
2019-03-16T00:09:41.255Z,62.6
2019-03-16T00:10:31.008Z,62.6
2019-03-16T00:11:21.101Z,62.6
2019-03-16T00:12:10.673Z,62.6
2019-03-16T00:13:01.473Z,62.6
2019-03-16T00:13:51.075Z,62.6
2019-03-16T00:14:41.048Z,62.5
2019-03-16T00:15:31.133Z,62.5
2019-03-16T00:16:21.510Z,62.5
2019-03-16T00:17:11.225Z,62.5
2019-03-16T00:18:00.783Z,62.5
2019-03-16T00:18:51.328Z,62.5
2019-03-16T00:19:41.935Z,62.5
2019-03-16T00:20:32.015Z,62.4
2019-03-16T00:21:21.507Z,62.5
2019-03-16T00:22:11.322Z,62.4
2019-03-16T00:23:02.345Z,62.5
2019-03-16T00:23:51.423Z,62.4
2019-03-16T00:24:42.015Z,62.4
2019-03-16T00:25:32.199Z,62.4
2019-03-16T00:26:21.609Z,62.4
2019-03-16T00:27:12.207Z,62.4
2019-03-16T00:28:01.710Z,62.4
2019-03-16T00:28:51.780Z,62.4
2019-03-16T00:29:42.417Z,62.4
2019-03-16T00:30:31.705Z,62.4
2019-03-16T00:31:22.492Z,62.4
2019-03-16T00:32:18.075Z,62.4
2019-03-16T00:33:01.868Z,62.4
2019-03-16T00:33:52.466Z,62.4
2019-03-16T00:34:41.989Z,62.4
2019-03-16T00:35:32.069Z,62.4
2019-03-16T00:36:22.859Z,62.4
2019-03-16T00:37:12.637Z,62.4
2019-03-16T00:38:02.699Z,62.3
2019-03-16T00:38:53.029Z,62.3
2019-03-16T00:39:43.095Z,62.3
2019-03-16T00:40:32.924Z,62.3
2019-03-16T00:41:23.204Z,62.3
2019-03-16T00:42:13.344Z,62.3
2019-03-16T00:43:03.644Z,62.3
2019-03-16T00:43:53.105Z,62.3
2019-03-16T00:44:43.179Z,62.3
2019-03-16T00:45:32.962Z,62.3
2019-03-16T00:46:23.294Z,62.3
2019-03-16T00:47:13.071Z,62.3
2019-03-16T00:48:03.964Z,62.3
2019-03-16T00:48:53.740Z,62.3
2019-03-16T00:49:44.081Z,62.3
2019-03-16T00:50:33.586Z,62.3
2019-03-16T00:51:23.906Z,62.3
2019-03-16T00:52:13.968Z,62.2
2019-03-16T00:53:04.024Z,62.2
2019-03-16T00:53:53.553Z,62.2
2019-03-16T00:54:43.613Z,62.2
2019-03-16T00:55:33.938Z,62.2
2019-03-16T00:56:24.287Z,62.2
2019-03-16T00:57:14.073Z,62.2
2019-03-16T00:58:04.100Z,62.2
2019-03-16T00:58:53.883Z,62.2
2019-03-16T00:59:44.566Z,62.1
2019-03-16T01:00:34.648Z,62.1
2019-03-16T01:01:24.615Z,62.1
2019-03-16T01:02:28.668Z,62.1
2019-03-16T01:03:04.473Z,62.1
2019-03-16T01:03:55.090Z,62.1
2019-03-16T01:04:44.875Z,62.1
2019-03-16T01:05:34.963Z,62.1
2019-03-16T01:06:24.162Z,62.1
2019-03-16T01:07:13.932Z,62.1
2019-03-16T01:08:04.576Z,62.1
2019-03-16T01:08:54.630Z,62.1
2019-03-16T01:09:48.045Z,62.1
2019-03-16T01:10:35.030Z,62.1
2019-03-16T01:11:25.627Z,62.1
2019-03-16T01:12:15.483Z,62.1
2019-03-16T01:13:04.908Z,62.1
2019-03-16T01:13:54.674Z,62.1
2019-03-16T01:14:45.854Z,62.1
2019-03-16T01:15:35.339Z,62.1
2019-03-16T01:16:25.734Z,62
2019-03-16T01:17:15.452Z,62
2019-03-16T01:18:05.809Z,62
2019-03-16T01:18:55.565Z,62
2019-03-16T01:19:45.984Z,62
2019-03-16T01:20:35.691Z,62
2019-03-16T01:21:26.356Z,62
2019-03-16T01:22:15.837Z,62
2019-03-16T01:23:05.621Z,61.9
2019-03-16T01:23:56.507Z,61.9
2019-03-16T01:24:45.719Z,61.9
2019-03-16T01:25:36.344Z,61.9
2019-03-16T01:26:26.214Z,61.9
2019-03-16T01:27:16.729Z,61.9
2019-03-16T01:28:06.519Z,61.9
2019-03-16T01:28:56.306Z,61.9
2019-03-16T01:29:46.354Z,61.9
2019-03-16T01:30:36.240Z,61.9
2019-03-16T01:31:26.767Z,61.9
2019-03-16T01:32:16.806Z,61.9
2019-03-16T01:33:07.164Z,61.9
2019-03-16T01:33:56.931Z,61.9
2019-03-16T01:34:48.539Z,61.9
2019-03-16T01:35:37.058Z,61.9
2019-03-16T01:36:27.382Z,61.9
2019-03-16T01:37:16.071Z,61.8
2019-03-16T01:38:07.238Z,61.8
2019-03-16T01:38:56.995Z,61.8
2019-03-16T01:39:47.076Z,61.8
2019-03-16T01:40:37.000Z,61.8
2019-03-16T01:41:26.718Z,61.8
2019-03-16T01:42:17.327Z,61.8
2019-03-16T01:43:07.202Z,61.8
2019-03-16T01:43:56.618Z,61.8
2019-03-16T01:44:47.430Z,61.8
2019-03-16T01:45:37.483Z,61.8
2019-03-16T01:46:27.575Z,61.8
2019-03-16T01:47:17.878Z,61.8
2019-03-16T01:48:07.958Z,61.8
2019-03-16T01:48:57.716Z,61.8
2019-03-16T01:49:48.040Z,61.8
2019-03-16T01:50:38.233Z,61.8
2019-03-16T01:51:27.630Z,61.8
2019-03-16T01:52:17.480Z,61.7
2019-03-16T01:53:07.730Z,61.7
2019-03-16T01:53:57.799Z,61.7
2019-03-16T01:54:48.402Z,61.7
2019-03-16T01:55:38.815Z,61.7
2019-03-16T01:56:28.807Z,61.7
2019-03-16T01:57:18.406Z,61.7
2019-03-16T01:58:08.932Z,61.7
2019-03-16T01:58:58.707Z,61.7
2019-03-16T01:59:48.506Z,61.7
2019-03-16T02:00:38.803Z,61.6
2019-03-16T02:01:29.194Z,61.6
2019-03-16T02:02:18.119Z,61.6
2019-03-16T02:03:08.725Z,61.6
2019-03-16T02:03:58.869Z,61.6
2019-03-16T02:04:49.196Z,61.6
2019-03-16T02:05:38.391Z,61.6
2019-03-16T02:06:29.226Z,61.6
2019-03-16T02:07:19.564Z,61.6
2019-03-16T02:08:09.157Z,61.6
2019-03-16T02:08:58.936Z,61.6
2019-03-16T02:09:48.691Z,61.6
2019-03-16T02:10:39.252Z,61.6
2019-03-16T02:11:29.304Z,61.6
2019-03-16T02:12:19.370Z,61.6
2019-03-16T02:13:09.177Z,61.6
2019-03-16T02:13:59.771Z,61.6
2019-03-16T02:14:49.839Z,61.5
2019-03-16T02:15:39.906Z,61.6
2019-03-16T02:16:29.954Z,61.5
2019-03-16T02:17:19.728Z,61.5
2019-03-16T02:18:08.958Z,61.5
2019-03-16T02:19:00.118Z,61.5
2019-03-16T02:19:50.438Z,61.5
2019-03-16T02:20:39.685Z,61.5
2019-03-16T02:21:30.546Z,61.5
2019-03-16T02:22:20.131Z,61.5
2019-03-16T02:23:10.160Z,61.4
2019-03-16T02:24:00.000Z,61.5
2019-03-16T02:24:50.873Z,61.4
2019-03-16T02:25:40.641Z,61.4
2019-03-16T02:26:30.920Z,61.4
2019-03-16T02:27:20.990Z,61.4
2019-03-16T02:28:10.757Z,61.4
2019-03-16T02:29:01.100Z,61.4
2019-03-16T02:29:50.957Z,61.4
2019-03-16T02:30:40.441Z,61.4
2019-03-16T02:31:31.326Z,61.4
2019-03-16T02:32:20.370Z,61.4
2019-03-16T02:33:18.253Z,61.4
2019-03-16T02:34:01.218Z,61.4
2019-03-16T02:34:51.272Z,61.4
2019-03-16T02:35:40.828Z,61.4
2019-03-16T02:36:30.863Z,61.4
2019-03-16T02:37:21.198Z,61.3
2019-03-16T02:38:10.976Z,61.4
2019-03-16T02:39:01.623Z,61.3
2019-03-16T02:39:51.124Z,61.3
2019-03-16T02:40:41.530Z,61.3
2019-03-16T02:41:31.809Z,61.3
2019-03-16T02:42:22.221Z,61.3
2019-03-16T02:43:11.600Z,61.3
2019-03-16T02:44:01.655Z,61.3
2019-03-16T02:44:51.596Z,61.3
2019-03-16T02:45:41.915Z,61.3
2019-03-16T02:46:32.400Z,61.3
2019-03-16T02:47:21.715Z,61.3
2019-03-16T02:48:11.816Z,61.3
2019-03-16T02:49:01.822Z,61.3
2019-03-16T02:49:52.092Z,61.3
2019-03-16T02:50:42.224Z,61.3
2019-03-16T02:51:32.212Z,61.3
2019-03-16T02:52:22.549Z,61.2
2019-03-16T02:53:12.511Z,61.3
2019-03-16T02:54:02.154Z,61.2
2019-03-16T02:54:52.706Z,61.2
2019-03-16T02:55:42.454Z,61.2
2019-03-16T02:56:32.834Z,61.2
2019-03-16T02:57:22.591Z,61.2
2019-03-16T02:58:12.981Z,61.2
2019-03-16T02:59:03.102Z,61.2
2019-03-16T02:59:53.196Z,61.2
2019-03-16T03:00:43.108Z,61.1
2019-03-16T03:01:33.159Z,61.1
2019-03-16T03:02:23.601Z,61.1
2019-03-16T03:03:32.007Z,61.1
2019-03-16T03:04:02.986Z,61.1
2019-03-16T03:07:35.295Z,61.1
2019-03-16T03:08:25.061Z,61.1
2019-03-16T03:09:15.093Z,61.1
2019-03-16T03:10:05.588Z,61.1
2019-03-16T03:10:55.534Z,61.1
2019-03-16T03:11:44.977Z,61.1
2019-03-16T03:12:35.641Z,61.1
2019-03-16T03:13:25.153Z,61.1
2019-03-16T03:14:15.976Z,61.1
2019-03-16T03:15:05.798Z,61
2019-03-16T03:15:55.853Z,61.1
2019-03-16T03:16:45.920Z,61
2019-03-16T03:17:35.741Z,61.1
2019-03-16T03:18:25.481Z,61
2019-03-16T03:19:15.866Z,61
2019-03-16T03:20:05.658Z,61
2019-03-16T03:20:56.111Z,61
2019-03-16T03:21:46.288Z,60.9
2019-03-16T03:22:36.327Z,61
2019-03-16T03:23:26.401Z,61
2019-03-16T03:24:15.889Z,61
2019-03-16T03:25:06.251Z,60.9
2019-03-16T03:25:56.400Z,60.9
2019-03-16T03:26:46.226Z,60.9
2019-03-16T03:27:36.238Z,60.9
2019-03-16T03:28:26.750Z,60.9
2019-03-16T03:29:16.762Z,60.9
2019-03-16T03:30:07.360Z,60.9
2019-03-16T03:30:56.782Z,60.9
2019-03-16T03:31:46.511Z,60.9
2019-03-16T03:32:37.710Z,60.9
2019-03-16T03:33:27.047Z,60.9
2019-03-16T03:34:16.958Z,60.9
2019-03-16T03:35:07.315Z,60.9
2019-03-16T03:35:56.994Z,60.9
2019-03-16T03:36:47.162Z,60.9
2019-03-16T03:37:36.860Z,60.9
2019-03-16T03:38:26.865Z,60.8
2019-03-16T03:39:16.388Z,60.8
2019-03-16T03:40:07.291Z,60.8
2019-03-16T03:41:02.836Z,60.8
2019-03-16T03:41:47.732Z,60.8
2019-03-16T03:42:37.843Z,60.8
2019-03-16T03:43:27.550Z,60.8
2019-03-16T03:44:17.937Z,60.8
2019-03-16T03:45:07.442Z,60.8
2019-03-16T03:45:57.952Z,60.8
2019-03-16T03:46:47.474Z,60.8
2019-03-16T03:47:37.866Z,60.8
2019-03-16T03:48:27.963Z,60.8
2019-03-16T03:49:18.029Z,60.8
2019-03-16T03:50:07.963Z,60.8
2019-03-16T03:50:58.138Z,60.8
2019-03-16T03:51:48.115Z,60.8
2019-03-16T03:52:37.901Z,60.8
2019-03-16T03:53:28.211Z,60.8
2019-03-16T03:54:18.066Z,60.8
2019-03-16T03:55:08.431Z,60.7
2019-03-16T03:55:58.557Z,60.7
2019-03-16T03:56:48.460Z,60.7
2019-03-16T03:57:38.574Z,60.7
2019-03-16T03:58:28.340Z,60.7
2019-03-16T03:59:18.794Z,60.7
2019-03-16T04:00:08.455Z,60.7
2019-03-16T04:00:58.961Z,60.6
2019-03-16T04:01:48.796Z,60.6
2019-03-16T04:02:38.923Z,60.6
2019-03-16T04:03:28.965Z,60.6
2019-03-16T04:04:20.846Z,60.6
2019-03-16T04:05:09.301Z,60.6
2019-03-16T04:05:58.272Z,60.6
2019-03-16T04:06:49.177Z,60.6
2019-03-16T04:07:39.228Z,60.6
2019-03-16T04:08:29.287Z,60.6
2019-03-16T04:09:19.383Z,60.6
2019-03-16T04:10:09.745Z,60.6
2019-03-16T04:10:59.455Z,60.6
2019-03-16T04:11:49.838Z,60.6
2019-03-16T04:12:39.737Z,60.6
2019-03-16T04:13:29.362Z,60.6
2019-03-16T04:14:19.532Z,60.6
2019-03-16T04:15:09.782Z,60.5
2019-03-16T04:15:59.578Z,60.5
2019-03-16T04:16:49.913Z,60.5
2019-03-16T04:17:39.712Z,60.5
2019-03-16T04:18:29.962Z,60.5
2019-03-16T04:19:20.324Z,60.5
2019-03-16T04:20:09.832Z,60.5
2019-03-16T04:21:00.168Z,60.5
2019-03-16T04:21:50.352Z,60.5
2019-03-16T04:22:40.375Z,60.4
2019-03-16T04:23:30.322Z,60.5
2019-03-16T04:24:20.247Z,60.4
2019-03-16T04:25:25.127Z,60.4
2019-03-16T04:26:00.764Z,60.4
2019-03-16T04:26:50.282Z,60.4
2019-03-16T04:27:40.662Z,60.4
2019-03-16T04:28:30.793Z,60.4
2019-03-16T04:29:20.454Z,60.4
2019-03-16T04:30:10.819Z,60.4
2019-03-16T04:31:00.966Z,60.4
2019-03-16T04:31:50.976Z,60.4
2019-03-16T04:32:40.975Z,60.4
2019-03-16T04:33:31.271Z,60.4
2019-03-16T04:34:34.252Z,60.4
2019-03-16T04:35:10.862Z,60.4
2019-03-16T04:36:01.453Z,60.4
2019-03-16T04:36:51.216Z,60.4
2019-03-16T04:37:41.460Z,60.4
2019-03-16T04:38:31.099Z,60.4
2019-03-16T04:39:21.766Z,60.3
2019-03-16T04:40:11.804Z,60.3
2019-03-16T04:41:01.220Z,60.3
2019-03-16T04:41:51.044Z,60.3
2019-03-16T04:42:41.242Z,60.3
2019-03-16T04:43:30.094Z,60.3
2019-03-16T04:44:21.344Z,60.3
2019-03-16T04:45:11.594Z,60.3
2019-03-16T04:46:01.367Z,60.3
2019-03-16T04:46:51.432Z,60.3
2019-03-16T04:47:42.012Z,60.3
2019-03-16T04:48:32.034Z,60.3
2019-03-16T04:49:21.272Z,60.3
2019-03-16T04:50:11.888Z,60.3
2019-03-16T04:51:02.296Z,60.3
2019-03-16T04:51:52.274Z,60.3
2019-03-16T04:52:42.594Z,60.3
2019-03-16T04:53:32.399Z,60.2
2019-03-16T04:54:22.463Z,60.3
2019-03-16T04:55:12.389Z,60.2
2019-03-16T04:56:02.841Z,60.2
2019-03-16T04:56:52.916Z,60.2
2019-03-16T04:57:42.464Z,60.2
2019-03-16T04:58:32.847Z,60.2
2019-03-16T04:59:22.631Z,60.2
2019-03-16T05:00:13.276Z,60.2
2019-03-16T05:01:03.312Z,60.2
2019-03-16T05:01:52.423Z,60.2
2019-03-16T05:02:43.459Z,60.2
2019-03-16T05:03:33.189Z,60.1
2019-03-16T05:04:23.201Z,60.1
2019-03-16T05:05:12.743Z,60.1
2019-03-16T05:06:02.503Z,60.1
2019-03-16T05:06:53.640Z,60.1
2019-03-16T05:07:43.684Z,60.1
2019-03-16T05:08:33.521Z,60.1
2019-03-16T05:09:23.498Z,60.1
2019-03-16T05:10:13.865Z,60.1
2019-03-16T05:11:04.028Z,60.1
2019-03-16T05:11:53.953Z,60.1
2019-03-16T05:12:43.805Z,60.1
2019-03-16T05:13:33.798Z,60.1
2019-03-16T05:14:23.570Z,60.1
2019-03-16T05:15:13.437Z,60.1
2019-03-16T05:16:03.698Z,60.1
2019-03-16T05:16:54.035Z,60
2019-03-16T05:17:44.375Z,60.1
2019-03-16T05:18:34.415Z,60
2019-03-16T05:19:24.000Z,60
2019-03-16T05:20:14.291Z,60
2019-03-16T05:21:04.430Z,60
2019-03-16T05:21:54.645Z,60
2019-03-16T05:22:44.449Z,60
2019-03-16T05:23:34.815Z,60
2019-03-16T05:24:24.833Z,59.9
2019-03-16T05:25:14.912Z,60
2019-03-16T05:26:04.451Z,59.9
2019-03-16T05:26:55.084Z,59.9
2019-03-16T05:27:44.332Z,59.9
2019-03-16T05:28:35.126Z,59.9
2019-03-16T05:29:24.649Z,59.9
2019-03-16T05:30:14.827Z,59.9
2019-03-16T05:31:05.039Z,59.9
2019-03-16T05:31:55.804Z,59.9
2019-03-16T05:32:45.155Z,59.9
2019-03-16T05:33:35.489Z,59.9
2019-03-16T05:34:25.057Z,59.9
2019-03-16T05:35:15.349Z,59.9
2019-03-16T05:36:05.179Z,59.9
2019-03-16T05:36:58.872Z,59.9
2019-03-16T05:37:45.544Z,59.9
2019-03-16T05:38:35.582Z,59.9
2019-03-16T05:39:25.336Z,59.8
2019-03-16T05:40:15.667Z,59.8
2019-03-16T05:41:05.991Z,59.8
2019-03-16T05:41:55.854Z,59.8
2019-03-16T05:42:46.151Z,59.8
2019-03-16T05:43:36.256Z,59.8
2019-03-16T05:44:25.421Z,59.8
2019-03-16T05:45:16.169Z,59.8
2019-03-16T05:46:06.093Z,59.8
2019-03-16T05:46:56.416Z,59.8
2019-03-16T05:47:46.475Z,59.8
2019-03-16T05:48:36.269Z,59.8
2019-03-16T05:49:26.371Z,59.8
2019-03-16T05:50:16.671Z,59.8
2019-03-16T05:51:06.713Z,59.8
2019-03-16T05:51:56.813Z,59.8
2019-03-16T05:52:46.286Z,59.8
2019-03-16T05:53:36.905Z,59.8
2019-03-16T05:54:27.005Z,59.8
2019-03-16T05:55:17.236Z,59.7
2019-03-16T05:56:07.083Z,59.7
2019-03-16T05:56:57.160Z,59.7
2019-03-16T05:57:47.206Z,59.7
2019-03-16T05:58:36.755Z,59.7
2019-03-16T05:59:27.050Z,59.7
2019-03-16T06:00:17.406Z,59.7
2019-03-16T06:01:07.424Z,59.7
2019-03-16T06:01:57.563Z,59.6
2019-03-16T06:02:47.549Z,59.6
2019-03-16T06:03:37.337Z,59.6
2019-03-16T06:05:33.955Z,59.6
2019-03-16T06:06:27.714Z,59.6
2019-03-16T06:07:14.764Z,59.6
2019-03-16T06:08:04.969Z,59.6
2019-03-16T06:08:55.012Z,59.6
2019-03-16T06:09:44.807Z,59.6
2019-03-16T06:10:34.040Z,59.6
2019-03-16T06:11:25.198Z,59.6
2019-03-16T06:12:15.040Z,59.6
2019-03-16T06:13:05.602Z,59.6
2019-03-16T06:13:55.091Z,59.6
2019-03-16T06:14:45.715Z,59.6
2019-03-16T06:15:34.933Z,59.6
2019-03-16T06:16:25.542Z,59.5
2019-03-16T06:17:15.042Z,59.6
2019-03-16T06:18:05.934Z,59.5
2019-03-16T06:18:55.434Z,59.5
2019-03-16T06:19:45.506Z,59.5
2019-03-16T06:20:35.557Z,59.5
2019-03-16T06:21:26.167Z,59.5
2019-03-16T06:22:15.411Z,59.5
2019-03-16T06:23:06.295Z,59.4
2019-03-16T06:23:55.806Z,59.4
2019-03-16T06:24:45.572Z,59.4
2019-03-16T06:25:36.596Z,59.4
2019-03-16T06:26:25.693Z,59.4
2019-03-16T06:27:15.743Z,59.4
2019-03-16T06:28:06.364Z,59.4
2019-03-16T06:28:56.425Z,59.4
2019-03-16T06:29:46.785Z,59.4
2019-03-16T06:30:36.594Z,59.4
2019-03-16T06:31:26.111Z,59.4
2019-03-16T06:32:16.479Z,59.4
2019-03-16T06:33:06.453Z,59.4
2019-03-16T06:33:56.485Z,59.4
2019-03-16T06:34:46.561Z,59.4
2019-03-16T06:35:37.163Z,59.4
2019-03-16T06:36:27.025Z,59.4
2019-03-16T06:37:17.025Z,59.4
2019-03-16T06:38:07.093Z,59.3
2019-03-16T06:38:56.937Z,59.3
2019-03-16T06:39:46.651Z,59.3
2019-03-16T06:40:37.056Z,59.3
2019-03-16T06:41:27.039Z,59.3
2019-03-16T06:42:17.635Z,59.3
2019-03-16T06:43:07.440Z,59.3
2019-03-16T06:43:57.224Z,59.3
2019-03-16T06:44:47.351Z,59.3
2019-03-16T06:45:37.310Z,59.3
2019-03-16T06:46:28.084Z,59.3
2019-03-16T06:47:17.448Z,59.3
2019-03-16T06:48:07.305Z,59.3
2019-03-16T06:48:58.167Z,59.3
2019-03-16T06:49:47.597Z,59.3
2019-03-16T06:50:37.945Z,59.2
2019-03-16T06:51:28.032Z,59.2
2019-03-16T06:52:17.787Z,59.2
2019-03-16T06:53:07.570Z,59.2
2019-03-16T06:53:57.913Z,59.2
2019-03-16T06:54:48.257Z,59.2
2019-03-16T06:55:38.160Z,59.2
2019-03-16T06:56:28.459Z,59.2
2019-03-16T06:57:17.697Z,59.2
2019-03-16T06:58:08.477Z,59.1
2019-03-16T06:59:01.910Z,59.2
2019-03-16T06:59:48.142Z,59.2
2019-03-16T07:00:38.387Z,59.1
2019-03-16T07:01:28.767Z,59.1
2019-03-16T07:02:19.039Z,59.1
2019-03-16T07:03:09.119Z,59.1
2019-03-16T07:05:42.349Z,59.1
2019-03-16T07:06:24.497Z,59.1
2019-03-16T07:07:14.635Z,59.1
2019-03-16T07:08:04.629Z,59.1
2019-03-16T07:08:54.706Z,59.1
2019-03-16T07:09:44.833Z,59.1
2019-03-16T07:10:34.809Z,59.1
2019-03-16T07:11:24.371Z,59.1
2019-03-16T07:12:14.991Z,59
2019-03-16T07:13:05.009Z,59
2019-03-16T07:13:55.148Z,59
2019-03-16T07:14:45.368Z,59
2019-03-16T07:15:35.444Z,59
2019-03-16T07:16:24.958Z,59
2019-03-16T07:17:15.261Z,59
2019-03-16T07:18:05.351Z,59
2019-03-16T07:19:03.821Z,59
2019-03-16T07:19:45.814Z,58.9
2019-03-16T07:20:36.073Z,58.9
2019-03-16T07:21:25.856Z,58.9
2019-03-16T07:22:16.176Z,58.9
2019-03-16T07:23:05.407Z,58.9
2019-03-16T07:23:55.745Z,58.9
2019-03-16T07:24:46.407Z,58.9
2019-03-16T07:25:36.125Z,58.9
2019-03-16T07:26:25.898Z,58.9
2019-03-16T07:27:30.260Z,58.9
2019-03-16T07:28:06.680Z,58.9
2019-03-16T07:28:56.370Z,58.9
2019-03-16T07:29:46.149Z,58.9
2019-03-16T07:30:39.733Z,58.9
2019-03-16T07:31:26.305Z,58.9
2019-03-16T07:32:16.350Z,58.9
2019-03-16T07:33:06.425Z,58.9
2019-03-16T07:33:56.424Z,58.9
2019-03-16T07:34:46.780Z,58.9
2019-03-16T07:35:36.855Z,58.8
2019-03-16T07:36:27.013Z,58.8
2019-03-16T07:37:16.694Z,58.8
2019-03-16T07:38:07.014Z,58.8
2019-03-16T07:38:56.612Z,58.8
2019-03-16T07:39:46.579Z,58.8
2019-03-16T07:40:37.567Z,58.8
2019-03-16T07:41:26.999Z,58.8
2019-03-16T07:42:17.582Z,58.8
2019-03-16T07:43:07.651Z,58.8
2019-03-16T07:43:57.697Z,58.8
2019-03-16T07:44:47.289Z,58.8
2019-03-16T07:45:37.846Z,58.8
2019-03-16T07:46:27.357Z,58.8
2019-03-16T07:47:17.652Z,58.8
2019-03-16T07:48:07.819Z,58.8
2019-03-16T07:48:57.764Z,58.8
2019-03-16T07:49:47.588Z,58.8
2019-03-16T07:50:38.219Z,58.7
2019-03-16T07:51:27.682Z,58.7
2019-03-16T07:52:17.742Z,58.7
2019-03-16T07:53:07.529Z,58.7
2019-03-16T07:53:57.856Z,58.7
2019-03-16T07:54:48.200Z,58.7
2019-03-16T07:55:38.257Z,58.7
2019-03-16T07:56:28.104Z,58.7
2019-03-16T07:57:18.134Z,58.7
2019-03-16T07:58:07.933Z,58.6
2019-03-16T07:58:58.216Z,58.6
2019-03-16T07:59:47.998Z,58.6
2019-03-16T08:00:38.326Z,58.6
2019-03-16T08:01:28.389Z,58.6
2019-03-16T08:02:18.773Z,58.6
2019-03-16T08:03:08.223Z,58.6
2019-03-16T08:03:58.305Z,58.6
2019-03-16T08:04:48.437Z,58.6
2019-03-16T08:06:28.811Z,58.6
2019-03-16T08:14:49.328Z,58.5
2019-03-16T08:16:29.445Z,58.5
2019-03-16T08:17:19.232Z,58.5
2019-03-16T08:18:11.658Z,58.5
2019-03-16T08:18:59.933Z,58.5
2019-03-16T08:19:50.038Z,58.5
2019-03-16T08:20:40.288Z,58.4
2019-03-16T08:21:30.367Z,58.5
2019-03-16T08:22:19.857Z,58.5
2019-03-16T08:23:10.192Z,58.4
2019-03-16T08:24:00.267Z,58.4
2019-03-16T08:24:50.563Z,58.4
2019-03-16T08:25:39.552Z,58.4
2019-03-16T08:26:29.611Z,58.4
2019-03-16T08:27:20.465Z,58.4
2019-03-16T08:28:10.800Z,58.4
2019-03-16T08:29:03.965Z,58.4
2019-03-16T08:29:50.662Z,58.4
2019-03-16T08:30:41.029Z,58.4
2019-03-16T08:31:30.787Z,58.4
2019-03-16T08:32:20.278Z,58.4
2019-03-16T08:33:10.634Z,58.4
2019-03-16T08:34:00.946Z,58.4
2019-03-16T08:34:50.174Z,58.4
2019-03-16T08:35:41.386Z,58.4
2019-03-16T08:36:30.927Z,58.4
2019-03-16T08:37:20.654Z,58.4
2019-03-16T08:38:10.984Z,58.4
2019-03-16T08:39:01.324Z,58.4
2019-03-16T08:39:51.419Z,58.4
2019-03-16T08:40:41.508Z,58.4
2019-03-16T08:41:31.492Z,58.5
2019-03-16T08:42:21.905Z,58.5
2019-03-16T08:44:01.569Z,58.6
2019-03-16T08:44:51.522Z,58.7
2019-03-16T08:45:40.831Z,58.8
2019-03-16T08:46:30.256Z,58.8
2019-03-16T08:47:21.211Z,58.9
2019-03-16T08:48:26.393Z,58.9
2019-03-16T08:49:01.471Z,59
2019-03-16T08:49:51.553Z,59.1
2019-03-16T08:50:42.133Z,59.1
2019-03-16T08:51:31.917Z,59.2
2019-03-16T08:52:22.022Z,59.3
2019-03-16T08:53:12.073Z,59.3
2019-03-16T08:54:02.120Z,59.4
2019-03-16T08:54:52.163Z,59.4
2019-03-16T08:55:42.510Z,59.4
2019-03-16T08:56:32.281Z,59.4
2019-03-16T08:57:22.608Z,59.6
2019-03-16T08:58:12.941Z,59.6
2019-03-16T08:59:02.793Z,59.6
2019-03-16T08:59:52.826Z,59.6
2019-03-16T09:00:42.845Z,59.7
2019-03-16T09:01:32.635Z,59.8
2019-03-16T09:02:22.685Z,59.8
2019-03-16T09:03:12.747Z,59.9
2019-03-16T09:04:02.793Z,60
2019-03-16T09:04:52.593Z,60.1
2019-03-16T09:05:43.262Z,60.1
2019-03-16T09:06:33.053Z,60.3
2019-03-16T09:07:23.107Z,60.3
2019-03-16T09:08:13.742Z,60.4
2019-03-16T09:09:02.960Z,60.4
2019-03-16T09:09:52.939Z,60.5
2019-03-16T09:10:43.005Z,60.6
2019-03-16T09:11:33.340Z,60.6
2019-03-16T09:12:23.775Z,60.7
2019-03-16T09:13:13.190Z,60.8
2019-03-16T09:14:03.524Z,60.8
2019-03-16T09:14:54.180Z,60.9
2019-03-16T09:15:43.977Z,61
2019-03-16T09:16:33.752Z,61.1
2019-03-16T09:17:24.050Z,61.1
2019-03-16T09:18:13.805Z,61.1
2019-03-16T09:19:04.454Z,61.2
2019-03-16T09:19:53.719Z,61.3
2019-03-16T09:20:44.554Z,61.4
2019-03-16T09:21:34.339Z,61.4
2019-03-16T09:22:24.669Z,61.4
2019-03-16T09:23:14.201Z,61.6
2019-03-16T09:24:03.989Z,61.6
2019-03-16T09:24:54.359Z,61.7
2019-03-16T09:25:44.140Z,61.7
2019-03-16T09:26:34.683Z,61.8
2019-03-16T09:27:35.803Z,61.9
2019-03-16T09:28:22.580Z,61.9
2019-03-16T09:29:18.137Z,62
2019-03-16T09:29:54.902Z,62.1
2019-03-16T09:30:44.695Z,62.1
2019-03-16T09:31:35.055Z,62.2
2019-03-16T09:32:24.533Z,62.3
2019-03-16T09:33:16.164Z,62.3
2019-03-16T09:34:04.735Z,62.4
2019-03-16T09:34:54.585Z,62.5
2019-03-16T09:35:44.883Z,62.5
2019-03-16T09:36:34.897Z,62.6
2019-03-16T09:37:25.707Z,62.7
2019-03-16T09:38:15.250Z,62.8
2019-03-16T09:39:05.007Z,62.8
2019-03-16T09:39:55.637Z,62.9
2019-03-16T09:40:45.749Z,62.9
2019-03-16T09:41:35.554Z,63
2019-03-16T09:42:25.602Z,63
2019-03-16T09:43:15.857Z,63.1
2019-03-16T09:44:05.929Z,63.1
2019-03-16T09:44:55.982Z,63.3
2019-03-16T09:45:45.501Z,63.3
2019-03-16T09:46:35.834Z,63.4
2019-03-16T09:47:25.598Z,63.4
2019-03-16T09:48:16.226Z,63.4
2019-03-16T09:49:06.571Z,63.6
2019-03-16T09:49:56.602Z,63.6
2019-03-16T09:51:00.531Z,63.7
2019-03-16T09:51:35.901Z,63.8
2019-03-16T09:52:26.611Z,63.8
2019-03-16T09:53:16.301Z,63.9
2019-03-16T09:54:06.643Z,64
2019-03-16T09:54:56.301Z,64.1
2019-03-16T09:55:46.752Z,64.1
2019-03-16T09:56:36.541Z,64.2
2019-03-16T09:57:26.638Z,64.3
2019-03-16T09:58:16.945Z,64.3
2019-03-16T09:59:06.454Z,64.4
2019-03-16T09:59:57.049Z,64.5
2019-03-16T10:00:46.817Z,64.6
2019-03-16T10:01:36.747Z,64.6
2019-03-16T10:02:27.197Z,64.7
2019-03-16T10:03:17.007Z,64.8
2019-03-16T10:04:07.086Z,64.9
2019-03-16T10:06:34.288Z,65
2019-03-16T10:07:24.634Z,65.1
2019-03-16T10:08:14.721Z,65.1
2019-03-16T10:09:04.764Z,65.2
2019-03-16T10:09:55.091Z,65.3
2019-03-16T10:10:45.176Z,65.4
2019-03-16T10:11:34.441Z,65.4
2019-03-16T10:12:25.069Z,65.4
2019-03-16T10:13:14.874Z,65.5
2019-03-16T10:14:05.398Z,65.5
2019-03-16T10:14:54.919Z,65.6
2019-03-16T10:15:44.944Z,65.6
2019-03-16T10:16:35.289Z,65.7
2019-03-16T10:17:25.626Z,65.8
2019-03-16T10:18:15.516Z,65.8
2019-03-16T10:19:05.765Z,65.9
2019-03-16T10:19:55.250Z,65.9
2019-03-16T10:20:45.301Z,65.9
2019-03-16T10:21:35.401Z,66
2019-03-16T10:22:25.765Z,66.1
2019-03-16T10:23:15.509Z,66.1
2019-03-16T10:24:05.838Z,66.2
2019-03-16T10:24:55.874Z,66.3
2019-03-16T10:25:45.940Z,66.3
2019-03-16T10:26:38.701Z,66.3
2019-03-16T10:27:25.523Z,66.4
2019-03-16T10:28:15.840Z,66.4
2019-03-16T10:29:06.252Z,66.4
2019-03-16T10:29:56.040Z,66.5
2019-03-16T10:30:46.005Z,66.5
2019-03-16T10:31:36.643Z,66.6
2019-03-16T10:32:25.950Z,66.6
2019-03-16T10:33:16.232Z,66.6
2019-03-16T10:34:06.575Z,66.7
2019-03-16T10:34:56.574Z,66.7
2019-03-16T10:35:46.688Z,66.8
2019-03-16T10:36:36.214Z,66.8
2019-03-16T10:37:26.775Z,66.8
2019-03-16T10:38:16.836Z,66.8
2019-03-16T10:39:07.252Z,66.8
2019-03-16T10:39:56.937Z,66.8
2019-03-16T10:40:47.013Z,66.9
2019-03-16T10:41:36.500Z,66.9
2019-03-16T10:42:27.407Z,66.9
2019-03-16T10:43:16.972Z,66.9
2019-03-16T10:44:07.231Z,66.9
2019-03-16T10:44:57.562Z,67
2019-03-16T10:45:47.077Z,67
2019-03-16T10:46:37.507Z,67
2019-03-16T10:47:27.227Z,67
2019-03-16T10:48:17.255Z,67.1
2019-03-16T10:49:07.694Z,67.1
2019-03-16T10:49:57.393Z,67.1
2019-03-16T10:50:47.655Z,67.1
2019-03-16T10:51:37.512Z,67.1
2019-03-16T10:52:27.265Z,67.2
2019-03-16T10:53:18.168Z,67.2
2019-03-16T10:54:08.369Z,67.2
2019-03-16T10:54:58.043Z,67.3
2019-03-16T10:55:48.342Z,67.3
2019-03-16T10:56:38.397Z,67.3
2019-03-16T10:57:28.504Z,67.3
2019-03-16T10:58:18.520Z,67.3
2019-03-16T10:59:08.296Z,67.3
2019-03-16T10:59:58.384Z,67.3
2019-03-16T11:00:48.711Z,67.3
2019-03-16T11:01:38.784Z,67.3
2019-03-16T11:02:28.839Z,67.3
2019-03-16T11:03:18.372Z,67.4
2019-03-16T11:04:07.653Z,67.4
2019-03-16T11:04:57.780Z,67.4
2019-03-16T11:05:48.838Z,67.4
2019-03-16T11:06:38.878Z,67.4
2019-03-16T11:07:28.061Z,67.4
2019-03-16T11:08:19.268Z,67.4
2019-03-16T11:09:09.063Z,67.4
2019-03-16T11:09:58.533Z,67.4
2019-03-16T11:10:49.192Z,67.4
2019-03-16T11:11:39.592Z,67.5
2019-03-16T11:12:29.253Z,67.4
2019-03-16T11:13:18.585Z,67.4
2019-03-16T11:14:08.903Z,67.4
2019-03-16T11:14:58.888Z,67.4
2019-03-16T11:15:49.565Z,67.4
2019-03-16T11:16:39.920Z,67.4
2019-03-16T11:17:28.725Z,67.4
2019-03-16T11:18:19.396Z,67.4
2019-03-16T11:19:09.752Z,67.4
2019-03-16T11:19:59.819Z,67.4
2019-03-16T11:20:49.601Z,67.4
2019-03-16T11:21:39.682Z,67.4
2019-03-16T11:22:29.998Z,67.4
2019-03-16T11:23:20.025Z,67.4
2019-03-16T11:24:09.837Z,67.4
2019-03-16T11:25:00.252Z,67.4
2019-03-16T11:25:50.212Z,67.4